sensor_id;sensor_type;location;lat;lon;timestamp;pressure;altitude;pressure_sealevel;temperature;humidity
56912;BME280;42800;53.928;27.662;2023-06-14T00:01:49;98979.81;;;16.18;100.00
56912;BME280;42800;53.928;27.662;2023-06-14T00:04:14;98964.31;;;15.75;100.00
56912;BME280;42800;53.928;27.662;2023-06-14T00:06:42;98981.47;;;16.08;100.00
56912;BME280;42800;53.928;27.662;2023-06-14T00:09:10;98962.97;;;16.02;100.00
56912;BME280;42800;53.928;27.662;2023-06-14T00:11:37;98966.66;;;15.84;100.00
56912;BME280;42800;53.928;27.662;2023-06-14T00:14:03;98962.22;;;15.94;100.00
56912;BME280;42800;53.928;27.662;2023-06-14T00:16:29;98968.53;;;15.94;100.00
56912;BME280;42800;53.928;27.662;2023-06-14T00:18:55;98983.00;;;16.16;100.00
56912;BME280;42800;53.928;27.662;2023-06-14T00:21:21;98979.63;;;15.91;100.00
56912;BME280;42800;53.928;27.662;2023-06-14T00:23:47;98973.94;;;16.12;100.00
56912;BME280;42800;53.928;27.662;2023-06-14T00:26:13;98974.81;;;15.98;100.00
56912;BME280;42800;53.928;27.662;2023-06-14T00:28:40;98963.31;;;16.07;100.00
56912;BME280;42800;53.928;27.662;2023-06-14T00:31:06;98946.91;;;15.82;100.00
56912;BME280;42800;53.928;27.662;2023-06-14T00:33:32;98955.91;;;15.93;100.00
56912;BME280;42800;53.928;27.662;2023-06-14T00:35:58;98968.47;;;16.05;100.00
56912;BME280;42800;53.928;27.662;2023-06-14T00:38:24;98948.13;;;15.77;100.00
56912;BME280;42800;53.928;27.662;2023-06-14T00:40:50;98945.38;;;15.77;100.00
56912;BME280;42800;53.928;27.662;2023-06-14T00:43:16;98931.97;;;15.72;100.00
56912;BME280;42800;53.928;27.662;2023-06-14T00:45:43;98925.59;;;15.79;100.00
56912;BME280;42800;53.928;27.662;2023-06-14T00:48:10;98926.44;;;15.72;100.00
56912;BME280;42800;53.928;27.662;2023-06-14T00:50:36;98934.38;;;15.63;100.00
56912;BME280;42800;53.928;27.662;2023-06-14T00:53:03;98929.50;;;15.85;100.00
56912;BME280;42800;53.928;27.662;2023-06-14T00:55:29;98926.88;;;15.67;100.00
56912;BME280;42800;53.928;27.662;2023-06-14T00:57:55;98924.75;;;15.86;100.00
56912;BME280;42800;53.928;27.662;2023-06-14T01:00:22;98927.94;;;15.84;100.00
56912;BME280;42800;53.928;27.662;2023-06-14T01:02:48;98922.41;;;15.84;100.00
56912;BME280;42800;53.928;27.662;2023-06-14T01:05:15;98913.78;;;15.75;100.00
56912;BME280;42800;53.928;27.662;2023-06-14T01:08:05;98920.94;;;15.69;100.00
56912;BME280;42800;53.928;27.662;2023-06-14T01:10:35;98912.59;;;15.80;100.00
56912;BME280;42800;53.928;27.662;2023-06-14T01:13:08;98919.31;;;15.75;100.00
56912;BME280;42800;53.928;27.662;2023-06-14T01:15:37;98914.50;;;15.83;100.00
56912;BME280;42800;53.928;27.662;2023-06-14T01:18:05;98923.59;;;15.87;100.00
56912;BME280;42800;53.928;27.662;2023-06-14T01:20:32;98910.28;;;15.64;100.00
56912;BME280;42800;53.928;27.662;2023-06-14T01:23:02;98921.72;;;15.73;100.00
56912;BME280;42800;53.928;27.662;2023-06-14T01:25:28;98918.53;;;15.74;100.00
56912;BME280;42800;53.928;27.662;2023-06-14T01:27:57;98915.75;;;15.78;100.00
56912;BME280;42800;53.928;27.662;2023-06-14T01:30:24;98911.59;;;15.41;100.00
56912;BME280;42800;53.928;27.662;2023-06-14T01:32:52;98921.81;;;15.48;100.00
56912;BME280;42800;53.928;27.662;2023-06-14T01:35:19;98934.00;;;15.61;100.00
56912;BME280;42800;53.928;27.662;2023-06-14T01:37:47;98917.09;;;15.48;100.00
56912;BME280;42800;53.928;27.662;2023-06-14T01:40:14;98910.41;;;15.42;100.00
56912;BME280;42800;53.928;27.662;2023-06-14T01:42:42;98924.94;;;15.57;100.00
56912;BME280;42800;53.928;27.662;2023-06-14T01:45:09;98915.81;;;15.64;100.00
56912;BME280;42800;53.928;27.662;2023-06-14T01:47:36;98911.19;;;15.46;100.00
56912;BME280;42800;53.928;27.662;2023-06-14T01:50:02;98908.78;;;15.52;100.00
56912;BME280;42800;53.928;27.662;2023-06-14T01:52:28;98897.38;;;15.46;100.00
56912;BME280;42800;53.928;27.662;2023-06-14T01:54:54;98910.38;;;15.53;100.00
56912;BME280;42800;53.928;27.662;2023-06-14T01:57:21;98903.34;;;15.38;100.00
56912;BME280;42800;53.928;27.662;2023-06-14T01:59:47;98909.16;;;15.54;100.00
56912;BME280;42800;53.928;27.662;2023-06-14T02:02:13;98911.63;;;15.38;100.00
56912;BME280;42800;53.928;27.662;2023-06-14T02:04:39;98918.16;;;15.69;100.00
56912;BME280;42800;53.928;27.662;2023-06-14T02:07:05;98896.28;;;15.33;100.00
56912;BME280;42800;53.928;27.662;2023-06-14T02:09:31;98891.50;;;15.41;100.00
56912;BME280;42800;53.928;27.662;2023-06-14T02:11:57;98898.91;;;15.54;100.00
56912;BME280;42800;53.928;27.662;2023-06-14T02:14:24;98909.56;;;15.56;100.00
56912;BME280;42800;53.928;27.662;2023-06-14T02:16:50;98889.16;;;15.32;100.00
56912;BME280;42800;53.928;27.662;2023-06-14T02:19:16;98895.78;;;15.45;100.00
56912;BME280;42800;53.928;27.662;2023-06-14T02:21:42;98907.09;;;15.72;100.00
56912;BME280;42800;53.928;27.662;2023-06-14T02:24:08;98883.97;;;15.45;100.00
56912;BME280;42800;53.928;27.662;2023-06-14T02:26:34;98891.06;;;15.49;100.00
56912;BME280;42800;53.928;27.662;2023-06-14T02:29:00;98900.03;;;15.64;100.00
56912;BME280;42800;53.928;27.662;2023-06-14T02:31:26;98891.41;;;15.51;100.00
56912;BME280;42800;53.928;27.662;2023-06-14T02:33:52;98890.59;;;15.58;100.00
56912;BME280;42800;53.928;27.662;2023-06-14T02:36:18;98880.56;;;15.23;100.00
56912;BME280;42800;53.928;27.662;2023-06-14T02:38:45;98870.97;;;15.38;100.00
56912;BME280;42800;53.928;27.662;2023-06-14T02:41:12;98890.97;;;15.60;100.00
56912;BME280;42800;53.928;27.662;2023-06-14T02:43:38;98890.59;;;15.58;100.00
56912;BME280;42800;53.928;27.662;2023-06-14T02:46:04;98878.00;;;15.53;100.00
56912;BME280;42800;53.928;27.662;2023-06-14T02:48:31;98887.44;;;15.60;100.00
56912;BME280;42800;53.928;27.662;2023-06-14T02:50:57;98885.88;;;15.51;100.00
56912;BME280;42800;53.928;27.662;2023-06-14T02:53:23;98879.81;;;15.78;100.00
56912;BME280;42800;53.928;27.662;2023-06-14T02:55:49;98899.16;;;15.78;100.00
56912;BME280;42800;53.928;27.662;2023-06-14T02:58:15;98882.81;;;15.39;100.00
56912;BME280;42800;53.928;27.662;2023-06-14T03:00:41;98866.50;;;15.59;100.00
56912;BME280;42800;53.928;27.662;2023-06-14T03:03:07;98870.03;;;15.59;100.00
56912;BME280;42800;53.928;27.662;2023-06-14T03:05:41;98864.66;;;15.41;100.00
56912;BME280;42800;53.928;27.662;2023-06-14T03:08:11;98874.41;;;15.60;100.00
56912;BME280;42800;53.928;27.662;2023-06-14T03:10:42;98884.16;;;15.75;100.00
56912;BME280;42800;53.928;27.662;2023-06-14T03:13:08;98893.16;;;15.90;100.00
56912;BME280;42800;53.928;27.662;2023-06-14T03:15:36;98896.34;;;15.85;100.00
56912;BME280;42800;53.928;27.662;2023-06-14T03:18:02;98903.53;;;15.72;100.00
56912;BME280;42800;53.928;27.662;2023-06-14T03:20:29;98883.38;;;15.75;100.00
56912;BME280;42800;53.928;27.662;2023-06-14T03:22:59;98897.88;;;15.93;100.00
56912;BME280;42800;53.928;27.662;2023-06-14T03:25:25;98898.38;;;15.77;100.00
56912;BME280;42800;53.928;27.662;2023-06-14T03:27:54;98903.06;;;15.84;100.00
56912;BME280;42800;53.928;27.662;2023-06-14T03:30:20;98911.53;;;16.11;100.00
56912;BME280;42800;53.928;27.662;2023-06-14T03:32:46;98917.94;;;16.01;100.00
56912;BME280;42800;53.928;27.662;2023-06-14T03:35:12;98923.66;;;15.76;100.00
56912;BME280;42800;53.928;27.662;2023-06-14T03:37:42;98914.00;;;15.98;100.00
56912;BME280;42800;53.928;27.662;2023-06-14T03:40:10;98918.59;;;16.16;100.00
56912;BME280;42800;53.928;27.662;2023-06-14T03:42:36;98908.34;;;16.16;100.00
56912;BME280;42800;53.928;27.662;2023-06-14T03:45:02;98906.06;;;16.04;100.00
56912;BME280;42800;53.928;27.662;2023-06-14T03:47:28;98921.44;;;16.09;100.00
56912;BME280;42800;53.928;27.662;2023-06-14T03:49:54;98907.69;;;15.98;100.00
56912;BME280;42800;53.928;27.662;2023-06-14T03:52:20;98918.53;;;16.27;100.00
56912;BME280;42800;53.928;27.662;2023-06-14T03:54:47;98937.88;;;16.27;100.00
56912;BME280;42800;53.928;27.662;2023-06-14T03:57:14;98931.28;;;16.13;100.00
56912;BME280;42800;53.928;27.662;2023-06-14T03:59:40;98931.97;;;16.24;100.00
56912;BME280;42800;53.928;27.662;2023-06-14T04:02:06;98935.50;;;16.25;100.00
56912;BME280;42800;53.928;27.662;2023-06-14T04:04:32;98947.56;;;16.45;100.00
56912;BME280;42800;53.928;27.662;2023-06-14T04:07:00;98937.84;;;16.30;100.00
56912;BME280;42800;53.928;27.662;2023-06-14T04:09:28;98932.78;;;16.21;100.00
56912;BME280;42800;53.928;27.662;2023-06-14T04:11:54;98943.47;;;16.61;100.00
56912;BME280;42800;53.928;27.662;2023-06-14T04:14:21;98953.34;;;16.62;100.00
56912;BME280;42800;53.928;27.662;2023-06-14T04:16:48;98959.03;;;16.47;100.00
56912;BME280;42800;53.928;27.662;2023-06-14T04:19:15;98952.91;;;16.67;100.00
56912;BME280;42800;53.928;27.662;2023-06-14T04:21:41;98952.31;;;16.45;100.00
56912;BME280;42800;53.928;27.662;2023-06-14T04:24:07;98955.84;;;16.49;100.00
56912;BME280;42800;53.928;27.662;2023-06-14T04:26:38;98957.25;;;16.68;100.00
56912;BME280;42800;53.928;27.662;2023-06-14T04:29:04;98938.50;;;16.45;100.00
56912;BME280;42800;53.928;27.662;2023-06-14T04:31:31;98950.94;;;16.67;100.00
56912;BME280;42800;53.928;27.662;2023-06-14T04:33:58;98953.03;;;16.53;100.00
56912;BME280;42800;53.928;27.662;2023-06-14T04:36:24;98964.78;;;16.67;100.00
56912;BME280;42800;53.928;27.662;2023-06-14T04:38:52;98955.75;;;16.60;100.00
56912;BME280;42800;53.928;27.662;2023-06-14T04:41:20;98955.69;;;16.67;100.00
56912;BME280;42800;53.928;27.662;2023-06-14T04:43:46;98958.19;;;16.54;100.00
56912;BME280;42800;53.928;27.662;2023-06-14T04:46:14;98957.25;;;16.68;100.00
56912;BME280;42800;53.928;27.662;2023-06-14T04:48:41;98959.28;;;16.64;100.00
56912;BME280;42800;53.928;27.662;2023-06-14T04:51:08;98957.44;;;16.50;100.00
56912;BME280;42800;53.928;27.662;2023-06-14T04:53:34;98947.06;;;16.58;100.00
56912;BME280;42800;53.928;27.662;2023-06-14T04:56:01;98931.13;;;16.31;100.00
56912;BME280;42800;53.928;27.662;2023-06-14T04:58:27;98944.34;;;16.54;100.00
56912;BME280;42800;53.928;27.662;2023-06-14T05:00:53;98954.38;;;16.79;100.00
56912;BME280;42800;53.928;27.662;2023-06-14T05:03:19;98956.84;;;16.66;100.00
56912;BME280;42800;53.928;27.662;2023-06-14T05:05:46;98952.09;;;16.70;100.00
56912;BME280;42800;53.928;27.662;2023-06-14T05:08:12;98961.06;;;16.85;100.00
56912;BME280;42800;53.928;27.662;2023-06-14T05:10:38;98959.75;;;16.97;100.00
56912;BME280;42800;53.928;27.662;2023-06-14T05:13:04;98959.16;;;16.78;100.00
56912;BME280;42800;53.928;27.662;2023-06-14T05:15:30;98940.72;;;16.99;100.00
56912;BME280;42800;53.928;27.662;2023-06-14T05:17:56;98953.16;;;17.17;100.00
56912;BME280;42800;53.928;27.662;2023-06-14T05:20:22;98958.38;;;17.12;100.00
56912;BME280;42800;53.928;27.662;2023-06-14T05:22:51;98948.94;;;17.06;100.00
56912;BME280;42800;53.928;27.662;2023-06-14T05:25:17;98936.91;;;16.85;100.00
56912;BME280;42800;53.928;27.662;2023-06-14T05:27:43;98947.28;;;17.12;100.00
56912;BME280;42800;53.928;27.662;2023-06-14T05:30:10;98947.91;;;17.27;100.00
56912;BME280;42800;53.928;27.662;2023-06-14T05:32:36;98953.50;;;17.23;100.00
56912;BME280;42800;53.928;27.662;2023-06-14T05:35:03;98957.59;;;17.42;100.00
56912;BME280;42800;53.928;27.662;2023-06-14T05:37:29;98948.22;;;17.32;100.00
56912;BME280;42800;53.928;27.662;2023-06-14T05:39:57;98951.38;;;17.34;100.00
56912;BME280;42800;53.928;27.662;2023-06-14T05:42:22;98943.06;;;17.04;100.00
56912;BME280;42800;53.928;27.662;2023-06-14T05:44:49;98945.88;;;17.31;100.00
56912;BME280;42800;53.928;27.662;2023-06-14T05:47:15;98937.50;;;17.04;100.00
56912;BME280;42800;53.928;27.662;2023-06-14T05:49:41;98946.56;;;17.38;100.00
56912;BME280;42800;53.928;27.662;2023-06-14T05:52:08;98957.19;;;17.44;100.00
56912;BME280;42800;53.928;27.662;2023-06-14T05:54:34;98944.84;;;17.17;100.00
56912;BME280;42800;53.928;27.662;2023-06-14T05:57:00;98927.69;;;16.96;100.00
56912;BME280;42800;53.928;27.662;2023-06-14T05:59:26;98940.25;;;17.38;100.00
56912;BME280;42800;53.928;27.662;2023-06-14T06:01:52;98946.13;;;17.44;100.00
56912;BME280;42800;53.928;27.662;2023-06-14T06:04:18;98959.81;;;17.54;100.00
56912;BME280;42800;53.928;27.662;2023-06-14T06:06:45;98948.34;;;17.52;100.00
56912;BME280;42800;53.928;27.662;2023-06-14T06:09:12;98944.50;;;17.77;100.00
56912;BME280;42800;53.928;27.662;2023-06-14T06:11:39;98953.09;;;17.82;100.00
56912;BME280;42800;53.928;27.662;2023-06-14T06:14:06;98965.69;;;17.91;100.00
56912;BME280;42800;53.928;27.662;2023-06-14T06:16:32;98953.69;;;17.39;100.00
56912;BME280;42800;53.928;27.662;2023-06-14T06:18:58;98948.78;;;17.51;100.00
56912;BME280;42800;53.928;27.662;2023-06-14T06:21:24;98959.13;;;17.77;100.00
56912;BME280;42800;53.928;27.662;2023-06-14T06:23:50;98955.31;;;17.37;100.00
56912;BME280;42800;53.928;27.662;2023-06-14T06:26:15;98966.53;;;17.57;100.00
56912;BME280;42800;53.928;27.662;2023-06-14T06:28:41;98972.34;;;17.66;100.00
56912;BME280;42800;53.928;27.662;2023-06-14T06:31:08;98952.28;;;17.55;100.00
56912;BME280;42800;53.928;27.662;2023-06-14T06:33:35;98972.94;;;17.81;100.00
56912;BME280;42800;53.928;27.662;2023-06-14T06:36:02;98982.94;;;18.02;100.00
56912;BME280;42800;53.928;27.662;2023-06-14T06:38:28;98975.94;;;17.63;100.00
56912;BME280;42800;53.928;27.662;2023-06-14T06:40:54;98977.06;;;17.65;100.00
56912;BME280;42800;53.928;27.662;2023-06-14T06:43:20;98973.91;;;17.67;100.00
56912;BME280;42800;53.928;27.662;2023-06-14T06:45:46;98986.16;;;18.24;100.00
56912;BME280;42800;53.928;27.662;2023-06-14T06:48:12;98984.41;;;18.10;100.00
56912;BME280;42800;53.928;27.662;2023-06-14T06:50:38;98993.34;;;17.94;100.00
56912;BME280;42800;53.928;27.662;2023-06-14T06:53:05;98973.50;;;17.96;100.00
56912;BME280;42800;53.928;27.662;2023-06-14T06:55:32;98962.56;;;17.85;100.00
56912;BME280;42800;53.928;27.662;2023-06-14T06:57:58;98964.91;;;17.90;100.00
56912;BME280;42800;53.928;27.662;2023-06-14T07:00:25;98963.41;;;18.32;100.00
56912;BME280;42800;53.928;27.662;2023-06-14T07:02:51;98972.03;;;18.15;100.00
56912;BME280;42800;53.928;27.662;2023-06-14T07:05:18;98963.50;;;18.02;100.00
56912;BME280;42800;53.928;27.662;2023-06-14T07:07:44;98951.94;;;18.07;100.00
56912;BME280;42800;53.928;27.662;2023-06-14T07:10:10;98967.06;;;18.53;100.00
56912;BME280;42800;53.928;27.662;2023-06-14T07:12:36;98969.13;;;18.69;100.00
56912;BME280;42800;53.928;27.662;2023-06-14T07:15:05;98989.13;;;18.37;100.00
56912;BME280;42800;53.928;27.662;2023-06-14T07:17:32;98971.97;;;18.42;100.00
56912;BME280;42800;53.928;27.662;2023-06-14T07:19:59;98961.25;;;18.67;100.00
56912;BME280;42800;53.928;27.662;2023-06-14T07:22:26;98990.22;;;18.43;100.00
56912;BME280;42800;53.928;27.662;2023-06-14T07:24:52;98957.13;;;18.28;100.00
56912;BME280;42800;53.928;27.662;2023-06-14T07:27:18;98961.56;;;18.49;100.00
56912;BME280;42800;53.928;27.662;2023-06-14T07:29:44;98961.31;;;19.07;100.00
56912;BME280;42800;53.928;27.662;2023-06-14T07:32:10;98980.31;;;19.28;100.00
56912;BME280;42800;53.928;27.662;2023-06-14T07:34:36;98973.28;;;19.04;100.00
56912;BME280;42800;53.928;27.662;2023-06-14T07:37:02;98977.09;;;18.90;100.00
56912;BME280;42800;53.928;27.662;2023-06-14T07:39:29;98984.31;;;19.27;100.00
56912;BME280;42800;53.928;27.662;2023-06-14T07:41:55;98996.66;;;19.07;100.00
56912;BME280;42800;53.928;27.662;2023-06-14T07:44:20;98987.31;;;19.37;100.00
56912;BME280;42800;53.928;27.662;2023-06-14T07:46:46;98992.28;;;19.45;100.00
56912;BME280;42800;53.928;27.662;2023-06-14T07:49:14;98988.63;;;20.05;100.00
56912;BME280;42800;53.928;27.662;2023-06-14T07:51:40;99001.59;;;20.28;100.00
56912;BME280;42800;53.928;27.662;2023-06-14T07:54:06;98991.25;;;19.19;100.00
56912;BME280;42800;53.928;27.662;2023-06-14T07:56:34;99006.25;;;19.98;100.00
56912;BME280;42800;53.928;27.662;2023-06-14T07:59:01;99007.00;;;19.82;100.00
56912;BME280;42800;53.928;27.662;2023-06-14T08:01:26;99013.69;;;20.21;100.00
56912;BME280;42800;53.928;27.662;2023-06-14T08:03:53;98998.31;;;20.16;100.00
56912;BME280;42800;53.928;27.662;2023-06-14T08:06:19;99015.09;;;20.13;100.00
56912;BME280;42800;53.928;27.662;2023-06-14T08:08:45;99014.13;;;20.19;100.00
56912;BME280;42800;53.928;27.662;2023-06-14T08:11:11;99025.81;;;20.63;100.00
56912;BME280;42800;53.928;27.662;2023-06-14T08:13:38;99028.84;;;20.20;100.00
56912;BME280;42800;53.928;27.662;2023-06-14T08:16:04;99025.25;;;19.67;100.00
56912;BME280;42800;53.928;27.662;2023-06-14T08:18:30;99013.88;;;19.78;100.00
56912;BME280;42800;53.928;27.662;2023-06-14T08:20:56;99010.03;;;20.40;100.00
56912;BME280;42800;53.928;27.662;2023-06-14T08:23:23;99029.72;;;20.50;100.00
56912;BME280;42800;53.928;27.662;2023-06-14T08:25:49;99019.69;;;20.03;100.00
56912;BME280;42800;53.928;27.662;2023-06-14T08:28:15;99017.28;;;20.54;100.00
56912;BME280;42800;53.928;27.662;2023-06-14T08:30:42;99021.31;;;20.99;100.00
56912;BME280;42800;53.928;27.662;2023-06-14T08:33:08;99015.06;;;20.95;100.00
56912;BME280;42800;53.928;27.662;2023-06-14T08:35:34;99020.53;;;20.98;100.00
56912;BME280;42800;53.928;27.662;2023-06-14T08:38:02;99011.03;;;20.96;100.00
56912;BME280;42800;53.928;27.662;2023-06-14T08:40:30;99018.56;;;20.82;98.57
56912;BME280;42800;53.928;27.662;2023-06-14T08:42:56;99020.22;;;21.09;98.69
56912;BME280;42800;53.928;27.662;2023-06-14T08:45:23;99011.53;;;20.78;100.00
56912;BME280;42800;53.928;27.662;2023-06-14T08:47:51;98999.84;;;21.12;100.00
56912;BME280;42800;53.928;27.662;2023-06-14T08:50:20;98995.81;;;21.00;100.00
56912;BME280;42800;53.928;27.662;2023-06-14T08:52:48;98997.75;;;21.16;100.00
56912;BME280;42800;53.928;27.662;2023-06-14T08:55:18;99003.47;;;21.25;100.00
56912;BME280;42800;53.928;27.662;2023-06-14T08:57:46;99005.72;;;21.72;98.59
56912;BME280;42800;53.928;27.662;2023-06-14T09:00:13;99009.47;;;22.33;97.22
56912;BME280;42800;53.928;27.662;2023-06-14T09:02:40;99001.38;;;21.71;99.87
56912;BME280;42800;53.928;27.662;2023-06-14T09:05:09;99005.19;;;22.28;97.82
56912;BME280;42800;53.928;27.662;2023-06-14T09:07:36;99002.50;;;22.38;97.90
56912;BME280;42800;53.928;27.662;2023-06-14T09:10:08;98997.81;;;22.47;100.00
56912;BME280;42800;53.928;27.662;2023-06-14T09:12:35;99003.41;;;22.95;96.57
56912;BME280;42800;53.928;27.662;2023-06-14T09:15:01;98992.50;;;23.10;96.15
56912;BME280;42800;53.928;27.662;2023-06-14T09:17:32;98999.38;;;23.84;90.80
56912;BME280;42800;53.928;27.662;2023-06-14T09:19:58;99003.34;;;24.05;87.35
56912;BME280;42800;53.928;27.662;2023-06-14T09:22:25;99017.41;;;24.23;85.31
56912;BME280;42800;53.928;27.662;2023-06-14T09:24:51;99003.06;;;23.59;90.56
56912;BME280;42800;53.928;27.662;2023-06-14T09:27:17;99005.56;;;24.19;89.21
56912;BME280;42800;53.928;27.662;2023-06-14T09:29:43;99000.94;;;24.34;86.63
56912;BME280;42800;53.928;27.662;2023-06-14T09:32:09;98998.59;;;23.83;89.98
56912;BME280;42800;53.928;27.662;2023-06-14T09:34:36;98994.94;;;24.05;90.07
56912;BME280;42800;53.928;27.662;2023-06-14T09:37:03;98987.34;;;23.74;95.10
56912;BME280;42800;53.928;27.662;2023-06-14T09:39:30;98997.94;;;24.87;89.32
56912;BME280;42800;53.928;27.662;2023-06-14T09:41:56;98988.69;;;24.41;89.80
56912;BME280;42800;53.928;27.662;2023-06-14T09:44:22;98994.63;;;24.03;93.93
56912;BME280;42800;53.928;27.662;2023-06-14T09:46:56;98978.50;;;23.54;97.64
56912;BME280;42800;53.928;27.662;2023-06-14T09:49:22;98978.06;;;23.86;95.15
56912;BME280;42800;53.928;27.662;2023-06-14T09:51:50;98997.19;;;23.88;94.45
56912;BME280;42800;53.928;27.662;2023-06-14T09:54:22;98982.59;;;24.33;91.79
56912;BME280;42800;53.928;27.662;2023-06-14T09:56:50;98995.47;;;25.35;85.56
56912;BME280;42800;53.928;27.662;2023-06-14T09:59:20;99005.56;;;25.61;82.67
56912;BME280;42800;53.928;27.662;2023-06-14T10:01:52;99001.72;;;25.30;84.14
56912;BME280;42800;53.928;27.662;2023-06-14T10:04:23;98994.66;;;25.53;78.83
56912;BME280;42800;53.928;27.662;2023-06-14T10:06:50;98997.81;;;25.19;78.38
56912;BME280;42800;53.928;27.662;2023-06-14T10:09:18;99020.59;;;25.30;76.59
56912;BME280;42800;53.928;27.662;2023-06-14T10:11:45;99000.78;;;24.97;79.86
56912;BME280;42800;53.928;27.662;2023-06-14T10:14:12;99003.72;;;24.93;82.62
56912;BME280;42800;53.928;27.662;2023-06-14T10:16:45;98998.13;;;25.39;81.03
56912;BME280;42800;53.928;27.662;2023-06-14T10:19:19;99007.94;;;25.07;80.69
56912;BME280;42800;53.928;27.662;2023-06-14T10:21:51;98998.03;;;25.85;80.61
56912;BME280;42800;53.928;27.662;2023-06-14T10:24:27;99000.47;;;25.22;83.59
56912;BME280;42800;53.928;27.662;2023-06-14T10:26:57;98983.94;;;25.24;83.36
56912;BME280;42800;53.928;27.662;2023-06-14T10:29:24;98994.69;;;24.98;84.10
56912;BME280;42800;53.928;27.662;2023-06-14T10:31:50;98981.09;;;24.51;89.00
56912;BME280;42800;53.928;27.662;2023-06-14T10:34:22;98985.94;;;24.59;89.54
56912;BME280;42800;53.928;27.662;2023-06-14T10:37:00;98971.28;;;24.55;92.15
56912;BME280;42800;53.928;27.662;2023-06-14T10:39:27;98980.16;;;24.45;90.30
56912;BME280;42800;53.928;27.662;2023-06-14T10:41:53;98970.75;;;23.80;93.18
56912;BME280;42800;53.928;27.662;2023-06-14T10:44:49;98960.75;;;24.19;94.38
56912;BME280;42800;53.928;27.662;2023-06-14T10:47:27;98966.31;;;24.50;90.34
56912;BME280;42800;53.928;27.662;2023-06-14T10:49:54;98962.97;;;24.33;91.49
56912;BME280;42800;53.928;27.662;2023-06-14T10:52:22;98955.03;;;24.32;91.91
56912;BME280;42800;53.928;27.662;2023-06-14T10:55:07;98954.34;;;23.69;99.95
56912;BME280;42800;53.928;27.662;2023-06-14T10:57:37;98942.75;;;23.27;100.00
56912;BME280;42800;53.928;27.662;2023-06-14T11:00:06;98922.78;;;23.37;100.00
56912;BME280;42800;53.928;27.662;2023-06-14T11:03:16;98919.97;;;23.37;100.00
56912;BME280;42800;53.928;27.662;2023-06-14T11:05:50;98920.84;;;23.56;100.00
56912;BME280;42800;53.928;27.662;2023-06-14T11:08:35;98930.91;;;23.22;100.00
56912;BME280;42800;53.928;27.662;2023-06-14T11:11:06;98926.59;;;22.87;100.00
56912;BME280;42800;53.928;27.662;2023-06-14T11:13:32;98927.03;;;23.20;100.00
56912;BME280;42800;53.928;27.662;2023-06-14T11:15:59;98938.03;;;23.45;100.00
56912;BME280;42800;53.928;27.662;2023-06-14T11:18:25;98943.03;;;24.13;98.43
56912;BME280;42800;53.928;27.662;2023-06-14T11:20:53;98950.81;;;23.78;96.28
56912;BME280;42800;53.928;27.662;2023-06-14T11:23:19;98955.56;;;24.49;95.15
56912;BME280;42800;53.928;27.662;2023-06-14T11:25:49;98968.63;;;24.42;88.79
56912;BME280;42800;53.928;27.662;2023-06-14T11:28:16;98965.13;;;24.20;91.22
56912;BME280;42800;53.928;27.662;2023-06-14T11:30:41;98953.81;;;23.83;96.21
56912;BME280;42800;53.928;27.662;2023-06-14T11:33:10;98957.34;;;24.24;92.31
56912;BME280;42800;53.928;27.662;2023-06-14T11:35:36;98961.56;;;23.79;92.85
56912;BME280;42800;53.928;27.662;2023-06-14T11:38:02;98972.09;;;24.06;90.16
56912;BME280;42800;53.928;27.662;2023-06-14T11:40:29;98970.41;;;24.18;90.71
56912;BME280;42800;53.928;27.662;2023-06-14T11:42:58;98966.19;;;23.73;91.59
56912;BME280;42800;53.928;27.662;2023-06-14T11:45:25;98959.16;;;23.68;94.59
56912;BME280;42800;53.928;27.662;2023-06-14T11:47:51;98955.41;;;23.93;91.30
56912;BME280;42800;53.928;27.662;2023-06-14T11:50:17;98958.16;;;24.34;88.71
56912;BME280;42800;53.928;27.662;2023-06-14T11:52:43;98964.75;;;24.49;86.77
56912;BME280;42800;53.928;27.662;2023-06-14T11:55:10;98961.22;;;24.17;87.79
56912;BME280;42800;53.928;27.662;2023-06-14T11:57:36;98966.13;;;24.45;85.86
56912;BME280;42800;53.928;27.662;2023-06-14T12:00:04;98949.19;;;24.76;84.91
56912;BME280;42800;53.928;27.662;2023-06-14T12:02:37;98948.63;;;24.22;88.47
56912;BME280;42800;53.928;27.662;2023-06-14T12:05:04;98961.25;;;24.27;87.27
56912;BME280;42800;53.928;27.662;2023-06-14T12:07:31;98970.22;;;24.53;85.63
56912;BME280;42800;53.928;27.662;2023-06-14T12:10:04;98953.22;;;24.47;86.75
56912;BME280;42800;53.928;27.662;2023-06-14T12:12:35;98977.53;;;24.59;85.25
56912;BME280;42800;53.928;27.662;2023-06-14T12:15:02;98977.88;;;24.80;84.95
56912;BME280;42800;53.928;27.662;2023-06-14T12:17:32;98971.19;;;24.18;87.44
56912;BME280;42800;53.928;27.662;2023-06-14T12:19:58;98980.16;;;24.04;88.63
56912;BME280;42800;53.928;27.662;2023-06-14T12:22:24;98959.94;;;23.69;90.57
56912;BME280;42800;53.928;27.662;2023-06-14T12:24:51;98960.75;;;23.79;91.35
56912;BME280;42800;53.928;27.662;2023-06-14T12:27:21;98962.50;;;23.85;90.92
56912;BME280;42800;53.928;27.662;2023-06-14T12:29:58;98957.03;;;23.82;92.49
56912;BME280;42800;53.928;27.662;2023-06-14T12:32:24;98962.63;;;24.13;90.94
56912;BME280;42800;53.928;27.662;2023-06-14T12:34:50;98954.28;;;23.60;93.70
56912;BME280;42800;53.928;27.662;2023-06-14T12:37:16;98943.47;;;23.49;93.76
56912;BME280;42800;53.928;27.662;2023-06-14T12:39:42;98953.09;;;24.01;90.74
56912;BME280;42800;53.928;27.662;2023-06-14T12:42:09;98946.78;;;24.28;89.22
56912;BME280;42800;53.928;27.662;2023-06-14T12:44:35;98959.16;;;24.49;88.70